createdAt,value
2019-05-02T00:00:47.726Z,10.56
2019-05-02T00:03:17.619Z,10.56
2019-05-02T00:05:50.199Z,10.46
2019-05-02T00:08:20.111Z,10.43
2019-05-02T00:10:50.316Z,10.42
2019-05-02T00:13:20.565Z,10.38
2019-05-02T00:15:51.195Z,10.40
2019-05-02T00:18:22.171Z,10.42
2019-05-02T00:20:51.994Z,10.46
2019-05-02T00:23:22.965Z,10.49
2019-05-02T00:25:55.877Z,10.53
2019-05-02T00:28:25.959Z,10.54
2019-05-02T00:30:55.542Z,10.57
2019-05-02T00:33:29.227Z,10.56
2019-05-02T00:35:56.963Z,10.56
2019-05-02T00:38:26.436Z,10.45
2019-05-02T00:41:02.128Z,10.40
2019-05-02T00:43:34.258Z,10.34
2019-05-02T00:46:00.963Z,10.28
2019-05-02T00:48:35.980Z,10.24
2019-05-02T00:51:08.372Z,10.22
2019-05-02T00:53:37.794Z,10.22
2019-05-02T00:56:09.096Z,10.21
2019-05-02T00:58:38.846Z,10.20
2019-05-02T01:01:29.445Z,10.15
2019-05-02T01:04:01.827Z,10.13
2019-05-02T01:06:31.377Z,10.14
2019-05-02T01:09:00.748Z,10.09
2019-05-02T01:11:32.197Z,10.05
2019-05-02T01:14:01.424Z,9.97
2019-05-02T01:16:30.828Z,9.94
2019-05-02T01:19:00.201Z,9.96
2019-05-02T01:21:34.124Z,10.00
2019-05-02T01:24:03.118Z,10.03
2019-05-02T01:26:36.060Z,10.04
2019-05-02T01:29:10.950Z,10.08
2019-05-02T01:32:01.421Z,10.07
2019-05-02T01:35:04.549Z,10.05
2019-05-02T01:37:54.895Z,10.09
2019-05-02T01:40:25.091Z,10.11
2019-05-02T01:42:57.265Z,10.08
2019-05-02T01:45:26.856Z,10.05
2019-05-02T01:47:56.346Z,10.03
2019-05-02T01:50:33.540Z,9.98
2019-05-02T01:53:01.504Z,9.90
2019-05-02T01:55:30.918Z,9.85
2019-05-02T01:58:00.323Z,9.80
2019-05-02T02:00:29.686Z,9.79
2019-05-02T02:02:59.108Z,9.78
2019-05-02T02:05:32.336Z,9.76
2019-05-02T02:07:59.644Z,9.76
2019-05-02T02:10:29.100Z,9.77
2019-05-02T02:13:04.905Z,9.77
2019-05-02T02:15:30.275Z,9.74
2019-05-02T02:17:59.655Z,9.75
2019-05-02T02:20:33.943Z,9.78
2019-05-02T02:23:15.283Z,9.80
2019-05-02T02:25:54.360Z,9.78
2019-05-02T02:28:23.731Z,9.74
2019-05-02T02:30:57.706Z,9.70
2019-05-02T02:33:25.391Z,9.62
2019-05-02T02:35:55.511Z,9.57
2019-05-02T02:38:26.853Z,9.52
2019-05-02T02:40:56.308Z,9.48
2019-05-02T02:43:34.167Z,9.45
2019-05-02T02:46:13.397Z,9.44
2019-05-02T02:48:43.010Z,9.41
2019-05-02T02:51:22.700Z,9.41
2019-05-02T02:53:43.556Z,9.42
2019-05-02T02:56:12.950Z,9.45
2019-05-02T02:58:47.646Z,9.49
2019-05-02T03:01:13.832Z,9.53
2019-05-02T03:03:43.206Z,9.50
2019-05-02T03:06:12.551Z,9.51
2019-05-02T03:08:46.655Z,9.48
2019-05-02T03:11:22.742Z,9.49
2019-05-02T03:14:11.314Z,9.51
2019-05-02T03:16:46.895Z,9.45
2019-05-02T03:19:14.767Z,9.38
2019-05-02T03:21:54.244Z,9.36
2019-05-02T03:24:26.221Z,9.36
2019-05-02T03:26:58.319Z,9.39
2019-05-02T03:29:39.269Z,9.40
2019-05-02T03:32:14.255Z,9.39
2019-05-02T03:34:47.822Z,9.42
2019-05-02T03:37:10.531Z,9.41
2019-05-02T03:39:33.767Z,9.36
2019-05-02T03:42:05.048Z,9.36
2019-05-02T03:44:34.558Z,9.36
2019-05-02T03:47:04.980Z,9.35
2019-05-02T03:49:41.020Z,9.25
2019-05-02T03:52:07.052Z,9.15
2019-05-02T03:54:48.916Z,9.08
2019-05-02T03:57:08.109Z,9.04
2019-05-02T03:59:39.367Z,9.01
2019-05-02T04:02:14.073Z,8.97
2019-05-02T04:04:40.618Z,8.93
2019-05-02T04:07:10.715Z,8.90
2019-05-02T04:09:42.577Z,8.86
2019-05-02T04:12:18.338Z,8.84
2019-05-02T04:14:42.799Z,8.81
2019-05-02T04:17:12.270Z,8.76
2019-05-02T04:19:41.888Z,8.78
2019-05-02T04:22:12.394Z,8.75
2019-05-02T04:24:47.741Z,8.73
2019-05-02T04:27:34.219Z,8.73
2019-05-02T04:30:10.905Z,8.73
2019-05-02T04:32:35.032Z,8.72
2019-05-02T04:35:05.895Z,8.69
2019-05-02T04:37:41.061Z,8.67
2019-05-02T04:40:11.268Z,8.66
2019-05-02T04:42:39.313Z,8.69
2019-05-02T04:45:24.332Z,8.66
2019-05-02T04:47:42.533Z,8.67
2019-05-02T04:50:18.315Z,8.67
2019-05-02T04:52:51.109Z,8.65
2019-05-02T04:55:24.964Z,8.70
2019-05-02T04:57:50.909Z,8.73
2019-05-02T05:00:28.376Z,8.71
2019-05-02T05:02:57.893Z,8.64
2019-05-02T05:05:32.617Z,8.62
2019-05-02T05:08:02.128Z,8.59
2019-05-02T05:10:40.396Z,8.57
2019-05-02T05:13:02.641Z,8.60
2019-05-02T05:15:40.285Z,8.60
2019-05-02T05:18:04.464Z,8.62
2019-05-02T05:20:37.899Z,8.61
2019-05-02T05:23:08.091Z,8.57
2019-05-02T05:25:50.623Z,8.57
2019-05-02T05:28:20.293Z,8.65
2019-05-02T05:30:52.213Z,8.70
2019-05-02T05:33:21.188Z,8.73
2019-05-02T05:35:52.722Z,8.72
2019-05-02T05:38:27.815Z,8.69
2019-05-02T05:40:53.437Z,8.73
2019-05-02T05:43:27.549Z,8.65
2019-05-02T05:46:09.223Z,8.63
2019-05-02T05:48:32.082Z,8.58
2019-05-02T05:51:00.831Z,8.54
2019-05-02T05:53:30.391Z,8.51
2019-05-02T05:56:02.464Z,8.40
2019-05-02T05:58:30.942Z,8.39
2019-05-02T06:01:00.302Z,8.35
2019-05-02T06:03:33.954Z,8.40
2019-05-02T06:06:01.041Z,8.41
2019-05-02T06:08:30.444Z,8.41
2019-05-02T06:10:59.820Z,8.40
2019-05-02T06:13:29.235Z,8.38
2019-05-02T06:16:02.626Z,8.25
2019-05-02T06:18:30.182Z,8.21
2019-05-02T06:21:03.429Z,8.13
2019-05-02T06:23:31.115Z,8.07
2019-05-02T06:26:07.681Z,8.02
2019-05-02T06:28:36.185Z,7.99
2019-05-02T06:31:07.263Z,7.99
2019-05-02T06:33:35.284Z,7.99
2019-05-02T06:36:05.462Z,8.03
2019-05-02T06:38:34.843Z,8.08
2019-05-02T06:41:04.223Z,8.13
2019-05-02T06:43:33.700Z,8.07
2019-05-02T06:46:15.591Z,8.02
2019-05-02T06:48:34.221Z,7.88
2019-05-02T06:51:03.687Z,7.80
2019-05-02T06:53:35.089Z,7.81
2019-05-02T06:56:07.904Z,7.91
2019-05-02T06:58:37.068Z,8.00
2019-05-02T07:01:06.814Z,8.15
2019-05-02T07:03:36.162Z,8.31
2019-05-02T07:06:07.671Z,8.46
2019-05-02T07:08:37.221Z,8.66
2019-05-02T07:11:06.784Z,8.72
2019-05-02T07:13:41.845Z,8.80
2019-05-02T07:16:37.615Z,8.82
2019-05-02T07:19:02.417Z,8.80
2019-05-02T07:21:31.981Z,8.72
2019-05-02T07:24:01.401Z,8.65
2019-05-02T07:26:33.070Z,8.58
2019-05-02T07:29:02.424Z,8.68
2019-05-02T07:31:31.869Z,8.83
2019-05-02T07:34:01.780Z,8.98
2019-05-02T07:36:36.374Z,9.17
2019-05-02T07:39:06.122Z,9.37
2019-05-02T07:41:37.230Z,9.58
2019-05-02T07:44:06.761Z,9.61
2019-05-02T07:46:51.112Z,9.70
2019-05-02T07:49:20.846Z,9.82
2019-05-02T07:51:52.192Z,10.13
2019-05-02T07:54:24.902Z,10.39
2019-05-02T07:56:53.595Z,10.50
2019-05-02T07:59:27.028Z,10.65
2019-05-02T08:01:56.444Z,10.67
2019-05-02T08:04:27.586Z,10.42
2019-05-02T08:06:57.308Z,10.19
2019-05-02T08:09:27.257Z,9.93
2019-05-02T08:11:59.204Z,9.67
2019-05-02T08:14:29.308Z,9.44
2019-05-02T08:17:05.595Z,9.26
2019-05-02T08:19:30.929Z,9.16
2019-05-02T08:22:04.687Z,9.18
2019-05-02T08:24:33.033Z,9.23
2019-05-02T08:27:18.729Z,9.31
2019-05-02T08:29:48.128Z,9.49
2019-05-02T08:32:17.559Z,9.75
2019-05-02T08:34:51.876Z,9.95
2019-05-02T08:37:18.193Z,10.11
2019-05-02T08:39:48.518Z,10.19
2019-05-02T08:42:18.041Z,10.24
2019-05-02T08:44:51.327Z,10.33
2019-05-02T08:47:23.542Z,10.51
2019-05-02T08:49:54.612Z,10.76
2019-05-02T08:52:21.591Z,10.76
2019-05-02T08:54:51.056Z,10.41
2019-05-02T08:57:20.494Z,10.01
2019-05-02T08:59:50.147Z,9.72
2019-05-02T09:02:21.086Z,9.45
2019-05-02T09:04:58.776Z,9.46
2019-05-02T09:07:25.686Z,9.46
2019-05-02T09:09:55.595Z,9.56
2019-05-02T09:12:27.929Z,9.72
2019-05-02T09:14:57.417Z,9.95
2019-05-02T09:17:37.751Z,10.13
2019-05-02T09:20:03.462Z,10.33
2019-05-02T09:22:32.786Z,10.32
2019-05-02T09:25:02.345Z,10.25
2019-05-02T09:27:31.927Z,10.12
2019-05-02T09:30:02.796Z,10.02
2019-05-02T09:32:32.331Z,9.97
2019-05-02T09:35:06.072Z,10.09
2019-05-02T09:37:32.930Z,10.20
2019-05-02T09:40:06.952Z,10.36
2019-05-02T09:42:33.855Z,10.64
2019-05-02T09:45:03.992Z,10.80
2019-05-02T09:47:46.954Z,10.89
2019-05-02T09:50:14.572Z,10.93
2019-05-02T09:52:44.314Z,11.03
2019-05-02T09:55:15.783Z,11.06
2019-05-02T09:57:45.187Z,10.96
2019-05-02T10:00:32.385Z,10.85
2019-05-02T10:03:00.242Z,10.90
2019-05-02T10:05:29.698Z,10.92
2019-05-02T10:08:03.222Z,10.94
2019-05-02T10:10:32.391Z,10.99
2019-05-02T10:13:02.742Z,10.85
2019-05-02T10:15:32.888Z,10.67
2019-05-02T10:18:10.730Z,10.52
2019-05-02T10:20:36.170Z,10.58
2019-05-02T10:23:05.352Z,10.59
2019-05-02T10:25:38.567Z,10.86
2019-05-02T10:28:06.673Z,11.00
2019-05-02T10:30:36.333Z,11.07
2019-05-02T10:33:06.453Z,10.93
2019-05-02T10:35:40.825Z,10.84
2019-05-02T10:38:15.127Z,11.10
2019-05-02T10:40:42.469Z,11.25
2019-05-02T10:43:12.033Z,11.25
2019-05-02T10:45:47.433Z,11.10
2019-05-02T10:48:25.251Z,10.85
2019-05-02T10:50:52.475Z,10.91
2019-05-02T10:53:22.099Z,11.06
2019-05-02T10:55:52.298Z,11.17
2019-05-02T10:58:23.961Z,11.21
2019-05-02T11:00:53.199Z,11.32
2019-05-02T11:03:28.577Z,11.18
2019-05-02T11:06:05.707Z,10.92
2019-05-02T11:08:32.028Z,10.99
2019-05-02T11:11:06.266Z,11.00
2019-05-02T11:14:00.678Z,11.19
2019-05-02T11:16:42.407Z,11.01
2019-05-02T11:19:25.120Z,10.96
2019-05-02T11:21:58.793Z,10.89
2019-05-02T11:24:28.232Z,10.69
2019-05-02T11:27:02.821Z,10.68
2019-05-02T11:29:32.301Z,10.69
2019-05-02T11:32:02.728Z,10.75
2019-05-02T11:34:32.767Z,10.73
2019-05-02T11:37:02.201Z,10.80
2019-05-02T11:39:42.258Z,10.87
2019-05-02T11:42:06.478Z,10.66
2019-05-02T11:44:35.957Z,10.59
2019-05-02T11:47:06.119Z,10.69
2019-05-02T11:49:35.611Z,10.81
2019-05-02T11:52:05.025Z,10.89
2019-05-02T11:54:34.418Z,11.01
2019-05-02T11:57:03.835Z,11.19
2019-05-02T11:59:33.444Z,11.13
2019-05-02T12:02:19.089Z,11.25
2019-05-02T12:04:53.915Z,11.09
2019-05-02T12:07:23.124Z,11.21
2019-05-02T12:09:57.001Z,11.45
2019-05-02T12:12:27.310Z,11.62
2019-05-02T12:14:59.285Z,11.71
2019-05-02T12:17:28.660Z,11.82
2019-05-02T12:20:02.047Z,11.82
2019-05-02T12:22:32.450Z,11.97
2019-05-02T12:25:02.979Z,12.03
2019-05-02T12:27:32.549Z,11.81
2019-05-02T12:30:03.339Z,11.50
2019-05-02T12:32:33.421Z,11.48
2019-05-02T12:35:06.719Z,11.39
2019-05-02T12:37:36.071Z,11.56
2019-05-02T12:40:06.068Z,11.68
2019-05-02T12:42:36.043Z,11.55
2019-05-02T12:45:05.642Z,11.63
2019-05-02T12:47:35.011Z,11.66
2019-05-02T12:50:04.952Z,11.86
2019-05-02T12:52:34.329Z,12.04
2019-05-02T12:55:03.812Z,11.83
2019-05-02T12:57:33.234Z,11.72
2019-05-02T13:00:06.167Z,11.54
2019-05-02T13:02:44.438Z,11.36
2019-05-02T13:05:14.041Z,11.50
2019-05-02T13:07:50.651Z,11.76
2019-05-02T13:10:19.193Z,12.07
2019-05-02T13:12:48.597Z,12.14
2019-05-02T13:15:18.136Z,12.27
2019-05-02T13:17:48.923Z,12.28
2019-05-02T13:20:22.334Z,12.16
2019-05-02T13:23:13.585Z,12.09
2019-05-02T13:25:42.961Z,12.23
2019-05-02T13:28:12.464Z,12.10
2019-05-02T13:31:13.032Z,11.90
2019-05-02T13:33:49.370Z,11.68
2019-05-02T13:36:45.404Z,11.48
2019-05-02T13:39:26.128Z,11.43
2019-05-02T13:41:56.441Z,11.45
2019-05-02T13:44:29.613Z,11.27
2019-05-02T13:47:05.859Z,11.34
2019-05-02T13:49:35.320Z,11.31
2019-05-02T13:52:04.691Z,11.24
2019-05-02T13:54:35.108Z,11.28
2019-05-02T13:57:04.776Z,11.63
2019-05-02T13:59:34.151Z,11.79
2019-05-02T14:02:05.548Z,11.70
2019-05-02T14:04:34.922Z,11.61
2019-05-02T14:07:07.587Z,11.51
2019-05-02T14:09:58.215Z,11.45
2019-05-02T14:12:42.736Z,11.41
2019-05-02T14:15:13.681Z,11.59
2019-05-02T14:17:43.254Z,11.76
2019-05-02T14:20:13.837Z,11.92
2019-05-02T14:22:43.470Z,11.93
2019-05-02T14:25:13.083Z,12.13
2019-05-02T14:27:42.466Z,12.19
2019-05-02T14:30:12.337Z,12.19
2019-05-02T14:32:42.439Z,12.20
2019-05-02T14:35:26.390Z,12.23
2019-05-02T14:38:13.144Z,12.00
2019-05-02T14:40:52.782Z,12.13
2019-05-02T14:43:46.098Z,12.27
2019-05-02T14:46:12.574Z,12.37
2019-05-02T14:48:45.195Z,12.35
2019-05-02T14:51:16.883Z,12.29
2019-05-02T14:53:45.103Z,12.14
2019-05-02T14:56:47.390Z,12.02
2019-05-02T14:59:18.436Z,12.10
2019-05-02T15:01:49.983Z,12.27
2019-05-02T15:04:19.401Z,12.31
2019-05-02T15:06:52.287Z,12.26
2019-05-02T15:09:26.585Z,12.23
2019-05-02T15:11:59.011Z,12.13
2019-05-02T15:14:33.366Z,12.04
2019-05-02T15:17:03.567Z,11.91
2019-05-02T15:19:33.311Z,11.84
2019-05-02T15:22:02.705Z,11.66
2019-05-02T15:24:36.144Z,11.49
2019-05-02T15:27:11.447Z,11.61
2019-05-02T15:29:34.473Z,11.65
2019-05-02T15:32:22.291Z,11.52
2019-05-02T15:35:17.684Z,11.41
2019-05-02T15:37:45.564Z,11.26
2019-05-02T15:42:52.329Z,11.43
2019-05-02T15:45:25.766Z,11.39
2019-05-02T15:47:55.618Z,11.32
2019-05-02T15:50:25.905Z,11.34
2019-05-02T15:53:03.199Z,11.47
2019-05-02T15:55:39.163Z,11.94
2019-05-02T15:58:02.631Z,11.82
2019-05-02T16:00:35.652Z,11.59
2019-05-02T16:03:05.109Z,11.62
2019-05-02T16:05:36.566Z,11.51
2019-05-02T16:08:08.913Z,11.43
2019-05-02T16:10:38.467Z,12.20
2019-05-02T16:13:12.788Z,12.99
2019-05-02T16:15:40.185Z,13.46
2019-05-02T16:18:09.582Z,13.28
2019-05-02T16:20:48.710Z,13.15
2019-05-02T16:23:19.001Z,12.68
2019-05-02T16:25:48.243Z,12.26
2019-05-02T16:28:17.753Z,11.94
2019-05-02T16:30:48.789Z,11.61
2019-05-02T16:33:20.741Z,11.36
2019-05-02T16:35:51.507Z,11.13
2019-05-02T16:38:22.247Z,10.92
2019-05-02T16:40:52.616Z,10.73
2019-05-02T16:43:24.788Z,10.55
2019-05-02T16:45:54.400Z,10.25
2019-05-02T16:48:24.014Z,9.96
2019-05-02T16:50:53.490Z,9.65
2019-05-02T16:53:26.359Z,9.38
2019-05-02T16:55:58.403Z,9.48
2019-05-02T16:58:27.586Z,9.67
2019-05-02T17:00:59.240Z,9.39
2019-05-02T17:03:28.603Z,9.01
2019-05-02T17:05:58.176Z,8.78
2019-05-02T17:08:49.424Z,8.75
2019-05-02T17:11:20.194Z,8.99
2019-05-02T17:13:52.658Z,9.33
2019-05-02T17:16:22.219Z,9.81
2019-05-02T17:18:54.959Z,10.31
2019-05-02T17:21:26.978Z,10.13
2019-05-02T17:23:54.464Z,9.54
2019-05-02T17:26:24.478Z,9.01
2019-05-02T17:28:53.838Z,8.62
2019-05-02T17:31:23.218Z,8.44
2019-05-02T17:33:54.805Z,8.17
2019-05-02T17:36:28.391Z,8.18
2019-05-02T17:38:59.221Z,8.35
2019-05-02T17:41:26.666Z,8.43
2019-05-02T17:43:59.019Z,8.40
2019-05-02T17:46:27.713Z,7.99
2019-05-02T17:48:57.198Z,7.64
2019-05-02T17:51:48.376Z,7.42
2019-05-02T17:54:17.550Z,7.35
2019-05-02T17:56:47.096Z,7.10
2019-05-02T17:59:17.050Z,6.97
2019-05-02T18:01:46.554Z,6.84
2019-05-02T18:04:16.595Z,6.76
2019-05-02T18:06:46.802Z,6.82
2019-05-02T18:09:17.048Z,6.80
2019-05-02T18:11:46.459Z,6.95
2019-05-02T18:14:19.616Z,6.82
2019-05-02T18:16:51.007Z,6.69
2019-05-02T18:19:21.711Z,6.57
2019-05-02T18:21:49.380Z,6.41
2019-05-02T18:24:18.973Z,6.29
2019-05-02T18:26:48.442Z,6.21
2019-05-02T18:29:17.796Z,6.11
2019-05-02T18:31:47.735Z,6.04
2019-05-02T18:34:21.093Z,5.92
2019-05-02T18:36:48.309Z,5.74
2019-05-02T18:39:17.782Z,5.59
2019-05-02T18:41:47.523Z,5.52
2019-05-02T18:44:18.714Z,5.41
2019-05-02T18:46:48.397Z,5.41
2019-05-02T18:49:21.941Z,5.36
2019-05-02T18:51:53.768Z,5.24
2019-05-02T18:54:21.730Z,5.16
2019-05-02T18:56:55.322Z,5.03
2019-05-02T18:59:26.963Z,4.95
2019-05-02T19:01:57.178Z,4.89
2019-05-02T19:04:34.896Z,4.86
2019-05-02T19:06:58.329Z,4.86
2019-05-02T19:09:30.435Z,4.84
2019-05-02T19:12:05.307Z,4.85
2019-05-02T19:14:32.581Z,4.86
2019-05-02T19:17:07.009Z,4.73
2019-05-02T19:19:36.791Z,4.78
2019-05-02T19:22:07.449Z,4.82
2019-05-02T19:24:36.682Z,4.82
2019-05-02T19:27:06.610Z,4.83
2019-05-02T19:29:36.052Z,4.85
2019-05-02T19:32:08.400Z,4.87
2019-05-02T19:34:38.071Z,4.83
2019-05-02T19:37:07.523Z,4.83
2019-05-02T19:39:43.534Z,4.79
2019-05-02T19:42:12.273Z,4.75
2019-05-02T19:44:42.177Z,4.75
2019-05-02T19:47:15.712Z,4.70
2019-05-02T19:49:47.147Z,4.70
2019-05-02T19:52:14.040Z,4.71
2019-05-02T19:54:45.946Z,4.63
2019-05-02T19:57:17.084Z,4.61
2019-05-02T19:59:46.791Z,4.61
2019-05-02T20:02:16.165Z,4.63
2019-05-02T20:04:45.613Z,4.48
2019-05-02T20:07:15.017Z,4.48
2019-05-02T20:09:47.218Z,4.50
2019-05-02T20:12:15.800Z,4.48
2019-05-02T20:14:48.498Z,4.44
2019-05-02T20:17:20.360Z,4.40
2019-05-02T20:19:52.895Z,4.43
2019-05-02T20:22:22.497Z,4.40
2019-05-02T20:25:01.237Z,4.40
2019-05-02T20:27:30.206Z,4.33
2019-05-02T20:29:59.613Z,4.30
2019-05-02T20:32:29.067Z,4.30
2019-05-02T20:34:58.444Z,4.29
2019-05-02T20:37:27.894Z,4.29
2019-05-02T20:39:58.164Z,4.29
2019-05-02T20:42:27.579Z,4.32
2019-05-02T20:44:57.428Z,4.30
2019-05-02T20:47:27.878Z,4.20
2019-05-02T20:49:57.286Z,4.10
2019-05-02T20:52:26.661Z,4.10
2019-05-02T20:55:01.724Z,4.07
2019-05-02T20:57:31.769Z,4.08
2019-05-02T21:00:01.853Z,4.09
2019-05-02T21:02:31.956Z,4.04
2019-05-02T21:05:02.715Z,3.97
2019-05-02T21:07:53.304Z,3.87
2019-05-02T21:10:29.127Z,3.87
2019-05-02T21:12:58.690Z,3.75
2019-05-02T21:15:32.375Z,3.74
2019-05-02T21:18:02.347Z,3.70
2019-05-02T21:20:32.523Z,3.61
2019-05-02T21:23:09.412Z,3.59
2019-05-02T21:25:41.730Z,3.53
2019-05-02T21:28:11.944Z,3.51
2019-05-02T21:33:38.444Z,3.49
2019-05-02T21:36:12.059Z,3.44
2019-05-02T21:38:42.718Z,3.39
2019-05-02T21:41:15.424Z,3.40
2019-05-02T21:43:44.907Z,3.41
2019-05-02T21:46:16.840Z,3.37
2019-05-02T21:48:52.834Z,3.39
2019-05-02T21:51:40.038Z,3.38
2019-05-02T21:54:27.307Z,3.37
2019-05-02T21:57:02.542Z,3.38
2019-05-02T21:59:32.053Z,3.34
2019-05-02T22:02:11.890Z,3.33
2019-05-02T22:04:42.306Z,3.30
2019-05-02T22:07:14.838Z,3.33
2019-05-02T22:09:44.190Z,3.25
2019-05-02T22:12:15.478Z,3.20
2019-05-02T22:14:44.874Z,3.24
2019-05-02T22:17:22.802Z,3.23
2019-05-02T22:20:02.078Z,3.28
2019-05-02T22:22:34.360Z,3.36
2019-05-02T22:25:03.737Z,3.39
2019-05-02T22:27:35.152Z,3.38
2019-05-02T22:30:05.667Z,3.35
2019-05-02T22:32:46.855Z,3.28
2019-05-02T22:35:16.291Z,3.24
2019-05-02T22:37:47.530Z,3.26
2019-05-02T22:40:17.235Z,3.23
2019-05-02T22:42:46.658Z,3.23
2019-05-02T22:45:16.414Z,3.22
2019-05-02T22:47:46.661Z,3.23
2019-05-02T22:50:16.197Z,3.18
2019-05-02T22:52:45.570Z,3.17
2019-05-02T22:55:15.059Z,3.20
2019-05-02T22:57:44.463Z,3.26
2019-05-02T23:00:14.202Z,3.26
2019-05-02T23:02:46.723Z,3.26
2019-05-02T23:05:16.169Z,3.28
2019-05-02T23:07:46.528Z,3.31
2019-05-02T23:10:15.895Z,3.32
2019-05-02T23:12:45.460Z,3.35
2019-05-02T23:15:14.811Z,3.35
2019-05-02T23:17:44.156Z,3.36
2019-05-02T23:20:13.834Z,3.40
2019-05-02T23:22:43.218Z,3.41
2019-05-02T23:25:32.230Z,3.41
2019-05-02T23:28:06.346Z,3.44
2019-05-02T23:30:39.133Z,3.49
2019-05-02T23:33:08.532Z,3.50
2019-05-02T23:35:37.995Z,3.51
2019-05-02T23:38:07.849Z,3.55
2019-05-02T23:40:37.352Z,3.59
2019-05-02T23:43:06.746Z,3.59
2019-05-02T23:45:36.220Z,3.57
2019-05-02T23:48:06.223Z,3.57
2019-05-02T23:50:45.017Z,3.58
2019-05-02T23:53:14.501Z,3.54
2019-05-02T23:55:44.084Z,3.56
2019-05-02T23:58:13.450Z,3.57
